sensor_id;sensor_type;location;lat;lon;timestamp;pressure;altitude;pressure_sealevel;temperature
43802;BMP280;29429;51.074;13.764;2022-11-04T00:00:47;98855.66;;;11.96
43802;BMP280;29429;51.074;13.764;2022-11-04T00:03:14;98854.47;;;11.92
43802;BMP280;29429;51.074;13.764;2022-11-04T00:05:40;98856.38;;;11.91
43802;BMP280;29429;51.074;13.764;2022-11-04T00:08:07;98848.34;;;11.91
43802;BMP280;29429;51.074;13.764;2022-11-04T00:10:57;98851.72;;;11.87
43802;BMP280;29429;51.074;13.764;2022-11-04T00:13:43;98847.09;;;11.82
43802;BMP280;29429;51.074;13.764;2022-11-04T00:16:11;98840.91;;;11.82
43802;BMP280;29429;51.074;13.764;2022-11-04T00:18:59;98850.22;;;11.79
43802;BMP280;29429;51.074;13.764;2022-11-04T00:21:27;98842.44;;;11.78
43802;BMP280;29429;51.074;13.764;2022-11-04T00:24:13;98838.59;;;11.74
43802;BMP280;29429;51.074;13.764;2022-11-04T00:26:59;98837.22;;;11.71
43802;BMP280;29429;51.074;13.764;2022-11-04T00:29:44;98833.16;;;11.69
43802;BMP280;29429;51.074;13.764;2022-11-04T00:32:11;98824.53;;;11.67
43802;BMP280;29429;51.074;13.764;2022-11-04T00:34:56;98823.38;;;11.62
43802;BMP280;29429;51.074;13.764;2022-11-04T00:37:23;98823.63;;;11.61
43802;BMP280;29429;51.074;13.764;2022-11-04T00:39:50;98820.94;;;11.61
43802;BMP280;29429;51.074;13.764;2022-11-04T00:42:17;98810.72;;;11.58
43802;BMP280;29429;51.074;13.764;2022-11-04T00:44:44;98819.78;;;11.57
43802;BMP280;29429;51.074;13.764;2022-11-04T00:47:11;98819.78;;;11.57
43802;BMP280;29429;51.074;13.764;2022-11-04T00:49:38;98825.94;;;11.57
43802;BMP280;29429;51.074;13.764;2022-11-04T00:52:04;98821.41;;;11.58
43802;BMP280;29429;51.074;13.764;2022-11-04T00:54:31;98821.41;;;11.58
43802;BMP280;29429;51.074;13.764;2022-11-04T00:56:58;98828.72;;;11.62
43802;BMP280;29429;51.074;13.764;2022-11-04T00:59:25;98834.88;;;11.63
43802;BMP280;29429;51.074;13.764;2022-11-04T01:01:52;98827.44;;;11.65
43802;BMP280;29429;51.074;13.764;2022-11-04T01:04:19;98824.19;;;11.63
43802;BMP280;29429;51.074;13.764;2022-11-04T01:06:47;98819.41;;;11.65
43802;BMP280;29429;51.074;13.764;2022-11-04T01:09:13;98817.56;;;11.66
43802;BMP280;29429;51.074;13.764;2022-11-04T01:11:41;98811.41;;;11.65
43802;BMP280;29429;51.074;13.764;2022-11-04T01:14:08;98815.28;;;11.69
43802;BMP280;29429;51.074;13.764;2022-11-04T01:16:35;98816.28;;;11.68
43802;BMP280;29429;51.074;13.764;2022-11-04T01:19:02;98810.50;;;11.71
43802;BMP280;29429;51.074;13.764;2022-11-04T01:21:29;98804.13;;;11.72
43802;BMP280;29429;51.074;13.764;2022-11-04T01:23:58;98803.88;;;11.74
43802;BMP280;29429;51.074;13.764;2022-11-04T01:26:28;98807.13;;;11.76
43802;BMP280;29429;51.074;13.764;2022-11-04T01:28:56;98809.59;;;11.77
43802;BMP280;29429;51.074;13.764;2022-11-04T01:31:27;98816.66;;;11.83
43802;BMP280;29429;51.074;13.764;2022-11-04T01:33:56;98805.72;;;11.85
43802;BMP280;29429;51.074;13.764;2022-11-04T01:36:25;98810.34;;;11.89
43802;BMP280;29429;51.074;13.764;2022-11-04T01:38:56;98791.66;;;11.89
43802;BMP280;29429;51.074;13.764;2022-11-04T01:41:30;98796.88;;;11.96
43802;BMP280;29429;51.074;13.764;2022-11-04T01:44:00;98796.63;;;11.97
43802;BMP280;29429;51.074;13.764;2022-11-04T01:46:46;98796.88;;;11.96
43802;BMP280;29429;51.074;13.764;2022-11-04T01:49:27;98797.69;;;11.96
43802;BMP280;29429;51.074;13.764;2022-11-04T01:52:10;98795.59;;;11.98
43802;BMP280;29429;51.074;13.764;2022-11-04T01:54:40;98789.78;;;12.01
43802;BMP280;29429;51.074;13.764;2022-11-04T01:57:17;98784.75;;;12.05
43802;BMP280;29429;51.074;13.764;2022-11-04T01:59:45;98790.44;;;12.08
43802;BMP280;29429;51.074;13.764;2022-11-04T02:02:12;98791.00;;;12.10
43802;BMP280;29429;51.074;13.764;2022-11-04T02:04:42;98779.84;;;12.13
43802;BMP280;29429;51.074;13.764;2022-11-04T02:07:10;98781.69;;;12.13
43802;BMP280;29429;51.074;13.764;2022-11-04T02:09:39;98772.47;;;12.20
43802;BMP280;29429;51.074;13.764;2022-11-04T02:12:06;98767.63;;;12.17
43802;BMP280;29429;51.074;13.764;2022-11-04T02:14:53;98761.78;;;12.20
43802;BMP280;29429;51.074;13.764;2022-11-04T02:17:46;98766.19;;;12.27
43802;BMP280;29429;51.074;13.764;2022-11-04T02:20:39;98773.97;;;12.28
43802;BMP280;29429;51.074;13.764;2022-11-04T02:29:41;98782.31;;;12.32
43802;BMP280;29429;51.074;13.764;2022-11-04T02:32:43;98778.81;;;12.31
43802;BMP280;29429;51.074;13.764;2022-11-04T02:35:36;98796.75;;;12.31
43802;BMP280;29429;51.074;13.764;2022-11-04T02:38:31;98824.63;;;12.35
43802;BMP280;29429;51.074;13.764;2022-11-04T02:41:44;98798.13;;;12.33
43802;BMP280;29429;51.074;13.764;2022-11-04T02:44:35;98792.53;;;12.35
43802;BMP280;29429;51.074;13.764;2022-11-04T02:47:12;98782.41;;;12.37
43802;BMP280;29429;51.074;13.764;2022-11-04T02:49:54;98781.94;;;12.40
43802;BMP280;29429;51.074;13.764;2022-11-04T02:55:56;98769.13;;;12.42
43802;BMP280;29429;51.074;13.764;2022-11-04T02:58:37;98765.75;;;12.46
43802;BMP280;29429;51.074;13.764;2022-11-04T03:01:12;98784.22;;;12.48
43802;BMP280;29429;51.074;13.764;2022-11-04T03:03:46;98856.50;;;12.53
43802;BMP280;29429;51.074;13.764;2022-11-04T03:06:19;98872.91;;;12.56
43802;BMP280;29429;51.074;13.764;2022-11-04T03:08:50;98855.09;;;12.62
43802;BMP280;29429;51.074;13.764;2022-11-04T03:11:23;98867.38;;;12.63
43802;BMP280;29429;51.074;13.764;2022-11-04T03:14:26;98879.25;;;12.67
43802;BMP280;29429;51.074;13.764;2022-11-04T03:17:04;98884.84;;;12.65
43802;BMP280;29429;51.074;13.764;2022-11-04T03:19:48;98910.41;;;12.73
43802;BMP280;29429;51.074;13.764;2022-11-04T03:22:22;98904.22;;;12.72
43802;BMP280;29429;51.074;13.764;2022-11-04T03:24:51;98880.16;;;12.72
43802;BMP280;29429;51.074;13.764;2022-11-04T03:30:10;98887.22;;;12.78
43802;BMP280;29429;51.074;13.764;2022-11-04T03:32:57;98891.06;;;12.71
43802;BMP280;29429;51.074;13.764;2022-11-04T03:35:27;98888.31;;;12.66
43802;BMP280;29429;51.074;13.764;2022-11-04T03:37:56;98884.72;;;12.60
43802;BMP280;29429;51.074;13.764;2022-11-04T03:40:24;98885.34;;;12.51
43802;BMP280;29429;51.074;13.764;2022-11-04T03:42:58;98880.47;;;12.48
43802;BMP280;29429;51.074;13.764;2022-11-04T03:45:26;98887.84;;;12.41
43802;BMP280;29429;51.074;13.764;2022-11-04T03:47:55;98889.34;;;12.37
43802;BMP280;29429;51.074;13.764;2022-11-04T03:50:29;98884.97;;;12.31
43802;BMP280;29429;51.074;13.764;2022-11-04T03:52:57;98871.97;;;12.23
43802;BMP280;29429;51.074;13.764;2022-11-04T03:58:44;98878.38;;;12.10
43802;BMP280;29429;51.074;13.764;2022-11-04T04:01:54;98871.06;;;12.05
43802;BMP280;29429;51.074;13.764;2022-11-04T04:04:33;98871.06;;;12.05
43802;BMP280;29429;51.074;13.764;2022-11-04T04:07:17;98873.75;;;12.05
43802;BMP280;29429;51.074;13.764;2022-11-04T04:13:26;98879.34;;;12.04
43802;BMP280;29429;51.074;13.764;2022-11-04T04:16:16;98879.34;;;12.04
43802;BMP280;29429;51.074;13.764;2022-11-04T04:19:22;98882.94;;;12.09
43802;BMP280;29429;51.074;13.764;2022-11-04T04:22:07;98876.31;;;12.12
43802;BMP280;29429;51.074;13.764;2022-11-04T04:24:39;98876.53;;;12.10
43802;BMP280;29429;51.074;13.764;2022-11-04T04:27:28;98883.84;;;12.15
43802;BMP280;29429;51.074;13.764;2022-11-04T04:30:10;98893.34;;;12.23
43802;BMP280;29429;51.074;13.764;2022-11-04T04:32:47;98892.53;;;12.22
43802;BMP280;29429;51.074;13.764;2022-11-04T04:35:16;98894.97;;;12.23
43802;BMP280;29429;51.074;13.764;2022-11-04T04:38:07;98893.47;;;12.28
43802;BMP280;29429;51.074;13.764;2022-11-04T04:41:10;98899.63;;;12.28
43802;BMP280;29429;51.074;13.764;2022-11-04T04:43:57;98897.75;;;12.29
43802;BMP280;29429;51.074;13.764;2022-11-04T04:46:46;98894.84;;;12.30
43802;BMP280;29429;51.074;13.764;2022-11-04T04:49:15;98904.59;;;12.36
43802;BMP280;29429;51.074;13.764;2022-11-04T04:51:45;98899.56;;;12.40
43802;BMP280;29429;51.074;13.764;2022-11-04T04:54:13;98897.97;;;12.39
43802;BMP280;29429;51.074;13.764;2022-11-04T04:56:40;98900.75;;;12.44
43802;BMP280;29429;51.074;13.764;2022-11-04T04:59:07;98897.00;;;12.45
43802;BMP280;29429;51.074;13.764;2022-11-04T05:01:34;98910.97;;;12.47
43802;BMP280;29429;51.074;13.764;2022-11-04T05:04:01;98908.84;;;12.49
43802;BMP280;29429;51.074;13.764;2022-11-04T05:06:28;98899.53;;;12.51
43802;BMP280;29429;51.074;13.764;2022-11-04T05:08:54;98898.47;;;12.52
43802;BMP280;29429;51.074;13.764;2022-11-04T05:11:21;98896.88;;;12.51
43802;BMP280;29429;51.074;13.764;2022-11-04T05:13:55;98894.75;;;12.53
43802;BMP280;29429;51.074;13.764;2022-11-04T05:16:23;98898.00;;;12.55
43802;BMP280;29429;51.074;13.764;2022-11-04T05:18:53;98895.94;;;12.57
43802;BMP280;29429;51.074;13.764;2022-11-04T05:21:20;98904.53;;;12.59
43802;BMP280;29429;51.074;13.764;2022-11-04T05:23:47;98905.91;;;12.62
43802;BMP280;29429;51.074;13.764;2022-11-04T05:26:13;98916.34;;;12.63
43802;BMP280;29429;51.074;13.764;2022-11-04T05:28:41;98907.28;;;12.64
43802;BMP280;29429;51.074;13.764;2022-11-04T05:31:07;98912.97;;;12.68
43802;BMP280;29429;51.074;13.764;2022-11-04T05:33:34;98915.66;;;12.68
43802;BMP280;29429;51.074;13.764;2022-11-04T05:36:10;98915.16;;;12.71
43802;BMP280;29429;51.074;13.764;2022-11-04T05:38:38;98915.41;;;12.69
43802;BMP280;29429;51.074;13.764;2022-11-04T05:41:07;98907.94;;;12.71
43802;BMP280;29429;51.074;13.764;2022-11-04T05:43:35;98909.59;;;12.72
43802;BMP280;29429;51.074;13.764;2022-11-04T05:46:02;98912.47;;;12.71
43802;BMP280;29429;51.074;13.764;2022-11-04T05:48:29;98918.34;;;12.68
43802;BMP280;29429;51.074;13.764;2022-11-04T05:50:56;98907.03;;;12.66
43802;BMP280;29429;51.074;13.764;2022-11-04T05:53:23;98904.84;;;12.63
43802;BMP280;29429;51.074;13.764;2022-11-04T05:55:50;98900.00;;;12.60
43802;BMP280;29429;51.074;13.764;2022-11-04T05:58:17;98905.81;;;12.57
43802;BMP280;29429;51.074;13.764;2022-11-04T06:00:44;98906.84;;;12.56
43802;BMP280;29429;51.074;13.764;2022-11-04T06:03:10;98908.38;;;12.52
43802;BMP280;29429;51.074;13.764;2022-11-04T06:05:42;98915.25;;;12.48
43802;BMP280;29429;51.074;13.764;2022-11-04T06:08:09;98921.06;;;12.45
43802;BMP280;29429;51.074;13.764;2022-11-04T06:10:39;98922.59;;;12.41
43802;BMP280;29429;51.074;13.764;2022-11-04T06:13:30;98928.41;;;12.38
43802;BMP280;29429;51.074;13.764;2022-11-04T06:16:01;98929.81;;;12.29
43802;BMP280;29429;51.074;13.764;2022-11-04T06:18:47;98923.91;;;12.27
43802;BMP280;29429;51.074;13.764;2022-11-04T06:21:39;98924.47;;;12.29
43802;BMP280;29429;51.074;13.764;2022-11-04T06:28:08;98929.81;;;12.29
43802;BMP280;29429;51.074;13.764;2022-11-04T06:31:03;98930.31;;;12.26
43802;BMP280;29429;51.074;13.764;2022-11-04T06:33:31;98926.81;;;12.25
43802;BMP280;29429;51.074;13.764;2022-11-04T06:36:05;98934.81;;;12.37
43802;BMP280;29429;51.074;13.764;2022-11-04T06:38:35;98936.69;;;12.36
43802;BMP280;29429;51.074;13.764;2022-11-04T06:41:12;98923.88;;;12.38
43802;BMP280;29429;51.074;13.764;2022-11-04T06:43:40;98927.03;;;12.35
43802;BMP280;29429;51.074;13.764;2022-11-04T06:46:30;98914.94;;;12.33
43802;BMP280;29429;51.074;13.764;2022-11-04T06:48:57;98923.53;;;12.35
43802;BMP280;29429;51.074;13.764;2022-11-04T06:51:25;98931.19;;;12.43
43802;BMP280;29429;51.074;13.764;2022-11-04T06:53:52;98923.28;;;12.48
43802;BMP280;29429;51.074;13.764;2022-11-04T06:56:19;98921.75;;;12.52
43802;BMP280;29429;51.074;13.764;2022-11-04T06:58:51;98923.47;;;12.58
43802;BMP280;29429;51.074;13.764;2022-11-04T07:01:21;98925.19;;;12.64
43802;BMP280;29429;51.074;13.764;2022-11-04T07:03:51;98917.50;;;12.67
43802;BMP280;29429;51.074;13.764;2022-11-04T07:06:19;98901.78;;;12.71
43802;BMP280;29429;51.074;13.764;2022-11-04T07:08:47;98902.94;;;12.75
43802;BMP280;29429;51.074;13.764;2022-11-04T07:11:17;98907.34;;;12.81
43802;BMP280;29429;51.074;13.764;2022-11-04T07:13:45;98901.75;;;12.82
43802;BMP280;29429;51.074;13.764;2022-11-04T07:16:14;98902.16;;;12.91
43802;BMP280;29429;51.074;13.764;2022-11-04T07:18:41;98906.44;;;12.92
43802;BMP280;29429;51.074;13.764;2022-11-04T07:21:09;98906.56;;;12.97
43802;BMP280;29429;51.074;13.764;2022-11-04T07:23:37;98912.47;;;12.99
43802;BMP280;29429;51.074;13.764;2022-11-04T07:26:07;98911.75;;;13.04
43802;BMP280;29429;51.074;13.764;2022-11-04T07:28:34;98914.81;;;13.07
43802;BMP280;29429;51.074;13.764;2022-11-04T07:31:05;98907.06;;;13.11
43802;BMP280;29429;51.074;13.764;2022-11-04T07:33:32;98915.44;;;13.14
43802;BMP280;29429;51.074;13.764;2022-11-04T07:36:09;98917.97;;;13.21
43802;BMP280;29429;51.074;13.764;2022-11-04T07:38:36;98921.78;;;13.25
43802;BMP280;29429;51.074;13.764;2022-11-04T07:41:03;98927.56;;;13.33
43802;BMP280;29429;51.074;13.764;2022-11-04T07:43:31;98919.94;;;13.42
43802;BMP280;29429;51.074;13.764;2022-11-04T07:46:10;98932.50;;;13.58
43802;BMP280;29429;51.074;13.764;2022-11-04T07:48:38;98936.75;;;13.71
43802;BMP280;29429;51.074;13.764;2022-11-04T07:51:08;98942.31;;;13.86
43802;BMP280;29429;51.074;13.764;2022-11-04T07:53:45;98935.97;;;13.92
43802;BMP280;29429;51.074;13.764;2022-11-04T07:56:13;98935.31;;;14.01
43802;BMP280;29429;51.074;13.764;2022-11-04T07:58:40;98941.63;;;14.12
43802;BMP280;29429;51.074;13.764;2022-11-04T08:01:13;98953.78;;;14.20
43802;BMP280;29429;51.074;13.764;2022-11-04T08:03:41;98954.34;;;14.22
43802;BMP280;29429;51.074;13.764;2022-11-04T08:06:11;98964.84;;;14.23
43802;BMP280;29429;51.074;13.764;2022-11-04T08:08:38;98966.97;;;14.21
43802;BMP280;29429;51.074;13.764;2022-11-04T08:11:10;98955.66;;;14.19
43802;BMP280;29429;51.074;13.764;2022-11-04T08:13:44;98950.81;;;14.16
43802;BMP280;29429;51.074;13.764;2022-11-04T08:16:18;98943.81;;;14.15
43802;BMP280;29429;51.074;13.764;2022-11-04T08:18:47;98950.72;;;14.11
43802;BMP280;29429;51.074;13.764;2022-11-04T08:21:19;98948.53;;;14.08
43802;BMP280;29429;51.074;13.764;2022-11-04T08:23:46;98944.72;;;14.04
43802;BMP280;29429;51.074;13.764;2022-11-04T08:26:17;98954.88;;;14.02
43802;BMP280;29429;51.074;13.764;2022-11-04T08:28:45;98949.53;;;14.02
43802;BMP280;29429;51.074;13.764;2022-11-04T08:31:29;98940.09;;;13.99
43802;BMP280;29429;51.074;13.764;2022-11-04T08:33:56;98936.28;;;13.95
43802;BMP280;29429;51.074;13.764;2022-11-04T08:36:32;98924.25;;;13.98
43802;BMP280;29429;51.074;13.764;2022-11-04T08:38:59;98920.53;;;13.99
43802;BMP280;29429;51.074;13.764;2022-11-04T08:41:35;98924.34;;;14.03
43802;BMP280;29429;51.074;13.764;2022-11-04T08:44:04;98921.72;;;14.08
43802;BMP280;29429;51.074;13.764;2022-11-04T08:46:37;98921.81;;;14.13
43802;BMP280;29429;51.074;13.764;2022-11-04T08:49:07;98917.00;;;14.15
43802;BMP280;29429;51.074;13.764;2022-11-04T08:51:48;98921.38;;;14.21
43802;BMP280;29429;51.074;13.764;2022-11-04T08:54:23;98925.16;;;14.25
43802;BMP280;29429;51.074;13.764;2022-11-04T08:56:54;98922.00;;;14.28
43802;BMP280;29429;51.074;13.764;2022-11-04T08:59:24;98911.25;;;14.28
43802;BMP280;29429;51.074;13.764;2022-11-04T09:01:51;98912.56;;;14.26
43802;BMP280;29429;51.074;13.764;2022-11-04T09:04:18;98898.03;;;14.22
43802;BMP280;29429;51.074;13.764;2022-11-04T09:06:46;98890.56;;;14.24
43802;BMP280;29429;51.074;13.764;2022-11-04T09:09:16;98891.38;;;14.24
43802;BMP280;29429;51.074;13.764;2022-11-04T09:11:44;98881.63;;;14.18
43802;BMP280;29429;51.074;13.764;2022-11-04T09:14:12;98904.56;;;14.09
43802;BMP280;29429;51.074;13.764;2022-11-04T09:16:43;98908.31;;;14.08
43802;BMP280;29429;51.074;13.764;2022-11-04T09:19:13;98910.41;;;14.06
43802;BMP280;29429;51.074;13.764;2022-11-04T09:21:40;98919.34;;;14.12
43802;BMP280;29429;51.074;13.764;2022-11-04T09:24:07;98908.75;;;14.00
43802;BMP280;29429;51.074;13.764;2022-11-04T09:26:35;98916.22;;;13.98
43802;BMP280;29429;51.074;13.764;2022-11-04T09:29:01;98916.47;;;13.96
43802;BMP280;29429;51.074;13.764;2022-11-04T09:31:29;98903.31;;;13.95
43802;BMP280;29429;51.074;13.764;2022-11-04T09:33:56;98921.50;;;13.93
43802;BMP280;29429;51.074;13.764;2022-11-04T09:36:24;98923.56;;;13.86
43802;BMP280;29429;51.074;13.764;2022-11-04T09:38:51;98913.88;;;13.85
43802;BMP280;29429;51.074;13.764;2022-11-04T09:44:13;98911.19;;;13.85
43802;BMP280;29429;51.074;13.764;2022-11-04T09:46:44;98928.03;;;13.80
43802;BMP280;29429;51.074;13.764;2022-11-04T09:49:15;98931.44;;;13.76
43802;BMP280;29429;51.074;13.764;2022-11-04T09:51:46;98936.25;;;13.74
43802;BMP280;29429;51.074;13.764;2022-11-04T09:54:40;98943.97;;;13.70
43802;BMP280;29429;51.074;13.764;2022-11-04T09:57:17;98940.94;;;13.67
43802;BMP280;29429;51.074;13.764;2022-11-04T09:59:46;98951.91;;;13.65
43802;BMP280;29429;51.074;13.764;2022-11-04T10:11:18;98973.19;;;13.38
43802;BMP280;29429;51.074;13.764;2022-11-04T10:20:26;98976.63;;;13.22
43802;BMP280;29429;51.074;13.764;2022-11-04T10:29:07;98996.19;;;13.23
43802;BMP280;29429;51.074;13.764;2022-11-04T10:31:40;99001.88;;;13.26
43802;BMP280;29429;51.074;13.764;2022-11-04T10:34:35;98990.13;;;13.27
43802;BMP280;29429;51.074;13.764;2022-11-04T10:37:09;98994.44;;;13.28
43802;BMP280;29429;51.074;13.764;2022-11-04T10:39:45;99000.25;;;13.25
43802;BMP280;29429;51.074;13.764;2022-11-04T10:42:18;99002.94;;;13.25
43802;BMP280;29429;51.074;13.764;2022-11-04T10:44:49;99002.84;;;13.20
43802;BMP280;29429;51.074;13.764;2022-11-04T10:47:48;99002.41;;;13.12
43802;BMP280;29429;51.074;13.764;2022-11-04T10:50:29;99015.53;;;13.13
43802;BMP280;29429;51.074;13.764;2022-11-04T10:53:31;99009.97;;;13.15
43802;BMP280;29429;51.074;13.764;2022-11-04T10:56:28;99011.72;;;13.09
43802;BMP280;29429;51.074;13.764;2022-11-04T10:59:08;99018.00;;;13.03
43802;BMP280;29429;51.074;13.764;2022-11-04T11:01:58;99018.47;;;13.00
43802;BMP280;29429;51.074;13.764;2022-11-04T11:04:32;99018.72;;;12.99
43802;BMP280;29429;51.074;13.764;2022-11-04T11:07:07;99020.94;;;13.02
43802;BMP280;29429;51.074;13.764;2022-11-04T11:12:25;99019.53;;;12.99
43802;BMP280;29429;51.074;13.764;2022-11-04T11:15:36;99016.78;;;12.94
43802;BMP280;29429;51.074;13.764;2022-11-04T11:18:16;99012.00;;;12.96
43802;BMP280;29429;51.074;13.764;2022-11-04T11:21:12;99012.47;;;12.93
43802;BMP280;29429;51.074;13.764;2022-11-04T11:23:44;99005.47;;;12.92
43802;BMP280;29429;51.074;13.764;2022-11-04T11:26:28;99003.50;;;12.88
43802;BMP280;29429;51.074;13.764;2022-11-04T11:28:57;98998.16;;;12.88
43802;BMP280;29429;51.074;13.764;2022-11-04T11:31:39;99000.84;;;12.88
43802;BMP280;29429;51.074;13.764;2022-11-04T11:34:22;99006.91;;;12.83
43802;BMP280;29429;51.074;13.764;2022-11-04T11:36:54;99012.28;;;12.71
43802;BMP280;29429;51.074;13.764;2022-11-04T11:39:27;99002.66;;;12.70
43802;BMP280;29429;51.074;13.764;2022-11-04T11:44:35;99001.94;;;12.75
43802;BMP280;29429;51.074;13.764;2022-11-04T11:47:15;98994.38;;;12.72
43802;BMP280;29429;51.074;13.764;2022-11-04T11:49:44;98999.09;;;12.81
43802;BMP280;29429;51.074;13.764;2022-11-04T11:55:21;98995.03;;;12.79
43802;BMP280;29429;51.074;13.764;2022-11-04T11:58:34;98999.16;;;12.70
43802;BMP280;29429;51.074;13.764;2022-11-04T12:01:35;99008.13;;;12.64
43802;BMP280;29429;51.074;13.764;2022-11-04T12:04:04;99010.69;;;12.59
43802;BMP280;29429;51.074;13.764;2022-11-04T12:13:33;98999.81;;;12.26
43802;BMP280;29429;51.074;13.764;2022-11-04T12:22:31;99001.44;;;11.92
43802;BMP280;29429;51.074;13.764;2022-11-04T12:25:17;99009.00;;;11.83
43802;BMP280;29429;51.074;13.764;2022-11-04T12:27:54;99003.75;;;11.77
43802;BMP280;29429;51.074;13.764;2022-11-04T12:30:25;99000.56;;;11.68
43802;BMP280;29429;51.074;13.764;2022-11-04T12:36:21;99001.22;;;11.52
43802;BMP280;29429;51.074;13.764;2022-11-04T12:39:22;99002.28;;;11.51
43802;BMP280;29429;51.074;13.764;2022-11-04T12:47:42;98991.81;;;11.49
43802;BMP280;29429;51.074;13.764;2022-11-04T12:56:04;98980.91;;;11.39
43802;BMP280;29429;51.074;13.764;2022-11-04T13:01:52;98978.09;;;11.34
43802;BMP280;29429;51.074;13.764;2022-11-04T13:04:25;98978.69;;;11.36
43802;BMP280;29429;51.074;13.764;2022-11-04T13:07:03;98976.00;;;11.36
43802;BMP280;29429;51.074;13.764;2022-11-04T13:09:47;98968.25;;;11.35
43802;BMP280;29429;51.074;13.764;2022-11-04T13:12:21;98973.00;;;11.33
43802;BMP280;29429;51.074;13.764;2022-11-04T13:15:06;98976.25;;;11.35
43802;BMP280;29429;51.074;13.764;2022-11-04T13:17:40;98968.81;;;11.37
43802;BMP280;29429;51.074;13.764;2022-11-04T13:22:44;98983.47;;;11.46
43802;BMP280;29429;51.074;13.764;2022-11-04T13:25:30;98988.91;;;11.39
43802;BMP280;29429;51.074;13.764;2022-11-04T13:28:02;98989.72;;;11.40
43802;BMP280;29429;51.074;13.764;2022-11-04T13:30:36;98981.59;;;11.35
43802;BMP280;29429;51.074;13.764;2022-11-04T13:33:39;98984.03;;;11.36
43802;BMP280;29429;51.074;13.764;2022-11-04T13:39:10;98995.97;;;11.34
43802;BMP280;29429;51.074;13.764;2022-11-04T13:42:07;99006.84;;;11.21
43802;BMP280;29429;51.074;13.764;2022-11-04T13:44:51;99006.38;;;11.24
43802;BMP280;29429;51.074;13.764;2022-11-04T13:47:30;99005.25;;;11.31
43802;BMP280;29429;51.074;13.764;2022-11-04T13:49:58;99009.44;;;11.39
43802;BMP280;29429;51.074;13.764;2022-11-04T13:52:30;99004.47;;;11.42
43802;BMP280;29429;51.074;13.764;2022-11-04T13:55:03;99017.25;;;11.40
43802;BMP280;29429;51.074;13.764;2022-11-04T13:57:54;99020.56;;;11.36
43802;BMP280;29429;51.074;13.764;2022-11-04T14:00:30;99020.00;;;11.34
43802;BMP280;29429;51.074;13.764;2022-11-04T14:06:03;99027.75;;;11.24
43802;BMP280;29429;51.074;13.764;2022-11-04T14:08:31;99025.97;;;11.18
43802;BMP280;29429;51.074;13.764;2022-11-04T14:11:03;99027.84;;;11.17
43802;BMP280;29429;51.074;13.764;2022-11-04T14:18:35;99030.66;;;11.22
43802;BMP280;29429;51.074;13.764;2022-11-04T14:21:21;99039.00;;;11.26
43802;BMP280;29429;51.074;13.764;2022-11-04T14:23:57;99038.53;;;11.17
43802;BMP280;29429;51.074;13.764;2022-11-04T14:26:44;99044.66;;;11.18
43802;BMP280;29429;51.074;13.764;2022-11-04T14:29:23;99054.75;;;11.16
43802;BMP280;29429;51.074;13.764;2022-11-04T14:31:55;99053.56;;;11.12
43802;BMP280;29429;51.074;13.764;2022-11-04T14:34:27;99049.41;;;11.16
43802;BMP280;29429;51.074;13.764;2022-11-04T14:37:01;99052.00;;;11.22
43802;BMP280;29429;51.074;13.764;2022-11-04T14:39:39;99048.28;;;11.23
43802;BMP280;29429;51.074;13.764;2022-11-04T14:42:12;99058.88;;;11.30
43802;BMP280;29429;51.074;13.764;2022-11-04T14:44:45;99072.34;;;11.35
43802;BMP280;29429;51.074;13.764;2022-11-04T14:47:26;99066.13;;;11.41
43802;BMP280;29429;51.074;13.764;2022-11-04T14:52:32;99071.09;;;11.37
43802;BMP280;29429;51.074;13.764;2022-11-04T14:57:49;99077.69;;;11.35
43802;BMP280;29429;51.074;13.764;2022-11-04T15:00:32;99081.63;;;11.32
43802;BMP280;29429;51.074;13.764;2022-11-04T15:05:47;99088.38;;;11.35
43802;BMP280;29429;51.074;13.764;2022-11-04T15:08:27;99093.72;;;11.35
43802;BMP280;29429;51.074;13.764;2022-11-04T15:11:38;99078.59;;;11.29
43802;BMP280;29429;51.074;13.764;2022-11-04T15:16:48;99078.31;;;11.19
43802;BMP280;29429;51.074;13.764;2022-11-04T15:21:12;99086.63;;;11.11
43802;BMP280;29429;51.074;13.764;2022-11-04T15:30:26;99106.28;;;10.98
43802;BMP280;29429;51.074;13.764;2022-11-04T15:40:49;99119.97;;;11.01
43802;BMP280;29429;51.074;13.764;2022-11-04T15:44:53;99124.53;;;11.01
43802;BMP280;29429;51.074;13.764;2022-11-04T15:49:31;99117.78;;;10.98
43802;BMP280;29429;51.074;13.764;2022-11-04T15:54:35;99116.81;;;10.93
43802;BMP280;29429;51.074;13.764;2022-11-04T15:59:17;99132.28;;;10.84
43802;BMP280;29429;51.074;13.764;2022-11-04T16:03:17;99137.91;;;10.76
43802;BMP280;29429;51.074;13.764;2022-11-04T16:06:01;99139.09;;;10.80
43802;BMP280;29429;51.074;13.764;2022-11-04T16:08:30;99142.38;;;10.82
43802;BMP280;29429;51.074;13.764;2022-11-04T16:11:19;99135.41;;;10.81
43802;BMP280;29429;51.074;13.764;2022-11-04T16:14:20;99138.66;;;10.83
43802;BMP280;29429;51.074;13.764;2022-11-04T16:17:04;99146.16;;;10.75
43802;BMP280;29429;51.074;13.764;2022-11-04T16:20:18;99144.56;;;10.67
43802;BMP280;29429;51.074;13.764;2022-11-04T16:23:01;99152.06;;;10.77
43802;BMP280;29429;51.074;13.764;2022-11-04T16:25:45;99137.69;;;10.78
43802;BMP280;29429;51.074;13.764;2022-11-04T16:28:20;99160.38;;;10.87
43802;BMP280;29429;51.074;13.764;2022-11-04T16:31:06;99153.19;;;10.87
43802;BMP280;29429;51.074;13.764;2022-11-04T16:33:38;99158.72;;;10.86
43802;BMP280;29429;51.074;13.764;2022-11-04T16:36:39;99162.44;;;10.85
43802;BMP280;29429;51.074;13.764;2022-11-04T16:40:23;99153.03;;;10.82
43802;BMP280;29429;51.074;13.764;2022-11-04T16:42:53;99158.97;;;10.84
43802;BMP280;29429;51.074;13.764;2022-11-04T16:45:53;99166.69;;;10.92
43802;BMP280;29429;51.074;13.764;2022-11-04T16:48:29;99167.94;;;10.90
43802;BMP280;29429;51.074;13.764;2022-11-04T16:50:56;99185.94;;;10.94
43802;BMP280;29429;51.074;13.764;2022-11-04T16:53:23;99188.44;;;10.89
43802;BMP280;29429;51.074;13.764;2022-11-04T16:55:51;99193.78;;;10.89
43802;BMP280;29429;51.074;13.764;2022-11-04T16:58:19;99174.53;;;10.87
43802;BMP280;29429;51.074;13.764;2022-11-04T17:00:47;99187.88;;;10.87